Time;durP1;ratioP1;P1;durP2;ratioP2;P2;SDS_P1;SDS_P2;PMS_P1;PMS_P2;Temp;Humidity;BMP_temperature;BMP_pressure;BME280_temperature;BME280_humidity;BME280_pressure;Samples;Min_cycle;Max_cycle;Signal;HPM_P1;HPM_P2
2023/04/22 00:02:23;;;;;;;1.92;1.60;;;;;;;;;;5020943;28;20598;-85
2023/04/22 00:04:51;;;;;;;2.00;1.80;;;;;;;;;;5017384;28;20207;-83
2023/04/22 00:07:20;;;;;;;2.42;2.22;;;;;;;;;;5017309;28;20298;-84
2023/04/22 00:09:47;;;;;;;2.28;2.08;;;;;;;;;;5016743;28;20199;-83
2023/04/22 00:12:14;;;;;;;2.47;2.28;;;;;;;;;;5016721;28;20223;-84
2023/04/22 00:14:42;;;;;;;1.92;1.83;;;;;;;;;;5017112;28;20226;-84
2023/04/22 00:17:09;;;;;;;3.25;2.72;;;;;;;;;;5016295;28;20282;-82
2023/04/22 00:19:37;;;;;;;2.00;1.90;;;;;;;;;;5015820;28;20317;-83
2023/04/22 00:22:04;;;;;;;1.85;1.75;;;;;;;;;;5016657;28;20706;-84
2023/04/22 00:24:33;;;;;;;1.70;1.60;;;;;;;;;;5016052;28;20293;-84
2023/04/22 00:27:01;;;;;;;2.10;1.90;;;;;;;;;;5016099;28;20282;-83
2023/04/22 00:29:29;;;;;;;2.30;1.98;;;;;;;;;;5016152;28;20667;-83
2023/04/22 00:31:56;;;;;;;2.30;1.92;;;;;;;;;;5016177;28;20669;-82
2023/04/22 00:34:24;;;;;;;1.80;1.70;;;;;;;;;;5014991;28;20203;-83
2023/04/22 00:36:51;;;;;;;2.50;2.30;;;;;;;;;;5021549;28;20233;-83
2023/04/22 00:39:19;;;;;;;1.98;1.88;;;;;;;;;;5026959;28;20220;-83
2023/04/22 00:41:47;;;;;;;1.70;1.60;;;;;;;;;;5034434;28;20226;-84
2023/04/22 00:44:15;;;;;;;1.48;1.40;;;;;;;;;;5035341;28;20203;-82
2023/04/22 00:46:42;;;;;;;2.50;2.28;;;;;;;;;;5029389;28;20211;-83
2023/04/22 00:49:10;;;;;;;1.67;1.55;;;;;;;;;;5015165;28;20195;-83
2023/04/22 00:51:37;;;;;;;1.83;1.60;;;;;;;;;;5014921;28;20233;-82
2023/04/22 00:54:05;;;;;;;1.50;1.40;;;;;;;;;;5015097;28;20230;-83
2023/04/22 00:56:34;;;;;;;1.60;1.50;;;;;;;;;;5015490;28;20199;-84
2023/04/22 00:59:03;;;;;;;1.83;1.73;;;;;;;;;;5015290;28;20273;-82
2023/04/22 01:01:31;;;;;;;1.45;1.35;;;;;;;;;;5015254;28;20231;-83
2023/04/22 01:03:59;;;;;;;1.58;1.48;;;;;;;;;;5015523;28;20203;-83
2023/04/22 01:06:29;;;;;;;1.77;1.67;;;;;;;;;;5015075;28;20644;-83
2023/04/22 01:08:57;;;;;;;1.50;1.40;;;;;;;;;;5014487;28;20662;-83
2023/04/22 01:11:25;;;;;;;1.60;1.50;;;;;;;;;;5013361;28;20313;-82
2023/04/22 01:13:52;;;;;;;1.67;1.58;;;;;;;;;;5015371;28;20686;-82
2023/04/22 01:16:21;;;;;;;1.48;1.42;;;;;;;;;;5015303;28;20205;-83
2023/04/22 01:18:48;;;;;;;1.65;1.55;;;;;;;;;;5015269;28;20285;-82
2023/04/22 01:21:18;;;;;;;1.58;1.45;;;;;;;;;;5014352;28;20309;-82
2023/04/22 01:23:47;;;;;;;2.17;1.90;;;;;;;;;;5014501;28;20245;-83
2023/04/22 01:26:14;;;;;;;1.60;1.50;;;;;;;;;;5014581;28;20286;-83
2023/04/22 01:28:42;;;;;;;2.10;1.90;;;;;;;;;;5013666;28;20289;-83
2023/04/22 01:31:09;;;;;;;1.45;1.30;;;;;;;;;;5014317;28;20313;-84
2023/04/22 01:33:37;;;;;;;1.30;1.20;;;;;;;;;;5014064;28;20206;-82
2023/04/22 01:36:05;;;;;;;1.48;1.38;;;;;;;;;;5013849;28;20199;-82
2023/04/22 01:38:33;;;;;;;1.55;1.45;;;;;;;;;;5013769;28;20263;-82
2023/04/22 01:41:02;;;;;;;2.65;1.70;;;;;;;;;;5013384;28;20230;-83
2023/04/22 01:43:30;;;;;;;1.40;1.30;;;;;;;;;;5013800;28;20685;-83
2023/04/22 01:45:58;;;;;;;1.60;1.50;;;;;;;;;;5013842;28;20214;-83
2023/04/22 01:48:25;;;;;;;1.67;1.58;;;;;;;;;;5023865;28;20278;-83
2023/04/22 01:50:53;;;;;;;2.03;1.85;;;;;;;;;;5025408;28;20246;-83
2023/04/22 01:53:20;;;;;;;2.17;1.98;;;;;;;;;;5026289;28;20286;-83
2023/04/22 01:55:48;;;;;;;2.20;2.00;;;;;;;;;;5017998;28;20271;-84
2023/04/22 01:58:17;;;;;;;1.60;1.50;;;;;;;;;;5015607;28;20298;-83
2023/04/22 02:00:44;;;;;;;1.70;1.60;;;;;;;;;;5015208;28;20258;-84
2023/04/22 02:03:12;;;;;;;2.13;2.00;;;;;;;;;;5015643;28;20206;-84
2023/04/22 02:05:40;;;;;;;1.50;1.40;;;;;;;;;;5015617;28;20207;-84
2023/04/22 02:08:07;;;;;;;1.85;1.70;;;;;;;;;;5015568;28;20645;-84
2023/04/22 02:10:35;;;;;;;1.50;1.40;;;;;;;;;;5014575;28;20289;-83
2023/04/22 02:13:02;;;;;;;1.70;1.60;;;;;;;;;;5014991;28;20305;-84
2023/04/22 02:15:31;;;;;;;2.45;2.25;;;;;;;;;;5014731;28;20290;-83
2023/04/22 02:17:58;;;;;;;2.08;1.98;;;;;;;;;;5014341;28;20742;-83
2023/04/22 02:20:26;;;;;;;2.05;1.88;;;;;;;;;;5014422;28;20318;-83
2023/04/22 02:22:53;;;;;;;2.47;2.00;;;;;;;;;;5013928;28;20294;-83
2023/04/22 02:25:21;;;;;;;1.83;1.40;;;;;;;;;;5014798;28;20282;-83
2023/04/22 02:27:48;;;;;;;1.77;1.67;;;;;;;;;;5014949;28;20289;-83
2023/04/22 02:30:16;;;;;;;1.73;1.60;;;;;;;;;;5014766;28;20648;-83
2023/04/22 02:32:45;;;;;;;1.73;1.30;;;;;;;;;;5014415;28;20690;-84
2023/04/22 02:35:12;;;;;;;2.72;1.73;;;;;;;;;;5018793;28;20234;-83
2023/04/22 02:37:40;;;;;;;1.65;1.55;;;;;;;;;;5026234;28;20231;-85
2023/04/22 02:40:09;;;;;;;1.58;1.48;;;;;;;;;;5018738;28;20596;-84
2023/04/22 02:42:36;;;;;;;1.60;1.50;;;;;;;;;;5015049;28;20598;-83
2023/04/22 02:45:04;;;;;;;1.80;1.70;;;;;;;;;;5014687;28;20589;-84
2023/04/22 02:47:32;;;;;;;1.65;1.55;;;;;;;;;;5014233;28;20242;-83
2023/04/22 02:50:01;;;;;;;1.60;1.50;;;;;;;;;;5014586;28;20202;-83
2023/04/22 02:52:28;;;;;;;1.95;1.75;;;;;;;;;;5013979;28;20258;-84
2023/04/22 02:54:56;;;;;;;1.65;1.40;;;;;;;;;;5014164;28;20203;-83
2023/04/22 02:57:23;;;;;;;1.65;1.48;;;;;;;;;;5014134;28;20770;-83
2023/04/22 02:59:51;;;;;;;1.70;1.60;;;;;;;;;;5013617;28;20737;-83
2023/04/22 03:02:18;;;;;;;1.95;1.83;;;;;;;;;;5014795;28;20310;-84
2023/04/22 03:04:46;;;;;;;1.85;1.75;;;;;;;;;;5013991;28;20246;-84
2023/04/22 03:07:15;;;;;;;2.10;1.90;;;;;;;;;;5013908;28;20261;-84
2023/04/22 03:09:42;;;;;;;2.67;2.30;;;;;;;;;;5014109;28;20294;-83
2023/04/22 03:12:10;;;;;;;2.10;2.00;;;;;;;;;;5014274;28;20321;-83
2023/04/22 03:14:37;;;;;;;2.55;2.00;;;;;;;;;;5014365;28;20206;-83
2023/04/22 03:17:05;;;;;;;2.53;2.33;;;;;;;;;;5014139;28;20697;-83
2023/04/22 03:19:32;;;;;;;3.15;1.77;;;;;;;;;;5014215;28;20618;-83
2023/04/22 03:22:00;;;;;;;1.80;1.42;;;;;;;;;;5013704;28;20231;-83
2023/04/22 03:24:28;;;;;;;1.80;1.70;;;;;;;;;;5012969;28;20289;-83
2023/04/22 03:26:56;;;;;;;1.60;1.50;;;;;;;;;;5013348;28;20282;-85
2023/04/22 03:29:23;;;;;;;1.90;1.80;;;;;;;;;;5013062;28;20203;-83
2023/04/22 03:31:51;;;;;;;2.28;2.08;;;;;;;;;;5013566;28;20314;-83
2023/04/22 03:34:18;;;;;;;1.60;1.50;;;;;;;;;;5013475;28;20293;-83
2023/04/22 03:36:46;;;;;;;2.10;2.00;;;;;;;;;;5016884;28;20202;-83
2023/04/22 03:39:13;;;;;;;1.92;1.83;;;;;;;;;;5016468;28;20199;-84
2023/04/22 03:44:16;;;;;;;1.67;1.58;;;;;;;;;;5016040;28;20278;-84
2023/04/22 03:46:44;;;;;;;2.45;2.25;;;;;;;;;;5016743;28;20289;-83
2023/04/22 03:49:11;;;;;;;1.80;1.70;;;;;;;;;;5016967;28;20266;-84
2023/04/22 03:51:39;;;;;;;1.95;1.80;;;;;;;;;;5016379;28;20227;-84
2023/04/22 03:54:06;;;;;;;2.17;1.95;;;;;;;;;;5015884;28;20294;-83
2023/04/22 03:56:34;;;;;;;2.00;1.90;;;;;;;;;;5017439;28;20202;-84
2023/04/22 03:59:02;;;;;;;2.88;2.58;;;;;;;;;;5017740;28;20289;-83
2023/04/22 04:01:30;;;;;;;2.00;1.90;;;;;;;;;;5018246;28;20238;-83
2023/04/22 04:03:57;;;;;;;1.80;1.70;;;;;;;;;;5018030;28;20705;-83
2023/04/22 04:06:25;;;;;;;1.70;1.60;;;;;;;;;;5017234;28;20234;-83
2023/04/22 04:08:52;;;;;;;2.95;2.10;;;;;;;;;;5016267;28;20238;-83
2023/04/22 04:11:20;;;;;;;1.92;1.73;;;;;;;;;;5016608;28;20223;-83
2023/04/22 04:13:47;;;;;;;2.10;2.00;;;;;;;;;;5017246;28;20644;-84
2023/04/22 04:16:16;;;;;;;1.98;1.85;;;;;;;;;;5017449;28;20226;-84
2023/04/22 04:18:44;;;;;;;2.17;2.08;;;;;;;;;;5016364;28;20294;-84
2023/04/22 04:21:11;;;;;;;2.28;2.08;;;;;;;;;;5016125;28;20231;-84
2023/04/22 04:23:39;;;;;;;2.85;2.30;;;;;;;;;;5015910;28;20209;-83
2023/04/22 04:26:07;;;;;;;5.30;2.30;;;;;;;;;;5015637;28;20314;-82
2023/04/22 04:28:34;;;;;;;2.25;1.88;;;;;;;;;;5015214;28;20225;-82
2023/04/22 04:31:02;;;;;;;2.40;2.20;;;;;;;;;;5015478;28;20599;-83
2023/04/22 04:33:31;;;;;;;2.30;2.10;;;;;;;;;;5016328;28;20299;-84
2023/04/22 04:35:59;;;;;;;1.95;1.80;;;;;;;;;;5016171;28;20557;-84
2023/04/22 04:38:27;;;;;;;1.80;1.70;;;;;;;;;;5016405;28;20299;-84
2023/04/22 04:40:55;;;;;;;1.80;1.70;;;;;;;;;;5015778;28;20223;-82
2023/04/22 04:43:25;;;;;;;2.22;2.13;;;;;;;;;;5015745;28;20682;-83
2023/04/22 04:45:53;;;;;;;2.13;1.92;;;;;;;;;;5016155;28;20610;-83
2023/04/22 04:48:23;;;;;;;2.30;2.10;;;;;;;;;;5015862;28;20688;-83
2023/04/22 04:50:53;;;;;;;2.17;1.80;;;;;;;;;;5015486;28;20293;-82
2023/04/22 04:53:22;;;;;;;1.85;1.70;;;;;;;;;;5015968;28;20234;-84
2023/04/22 04:55:49;;;;;;;2.38;2.15;;;;;;;;;;5015789;28;20214;-84
2023/04/22 04:58:17;;;;;;;2.20;2.00;;;;;;;;;;5014825;28;20246;-82
2023/04/22 05:00:44;;;;;;;2.05;1.88;;;;;;;;;;5014589;28;20233;-83
2023/04/22 05:03:12;;;;;;;1.50;1.40;;;;;;;;;;5014624;28;20672;-83
2023/04/22 05:05:39;;;;;;;3.25;2.28;;;;;;;;;;5014785;28;20209;-83
2023/04/22 05:08:08;;;;;;;2.38;2.17;;;;;;;;;;5014456;28;20209;-83
2023/04/22 05:10:35;;;;;;;2.00;1.90;;;;;;;;;;5014142;28;20294;-82
2023/04/22 05:13:03;;;;;;;2.10;1.90;;;;;;;;;;5014720;28;20203;-83
2023/04/22 05:15:30;;;;;;;1.92;1.83;;;;;;;;;;5014301;28;20211;-83
2023/04/22 05:17:58;;;;;;;1.80;1.70;;;;;;;;;;5014222;28;20217;-82
2023/04/22 05:20:25;;;;;;;2.17;1.95;;;;;;;;;;5014646;28;20203;-83
2023/04/22 05:22:53;;;;;;;1.92;1.83;;;;;;;;;;5014458;28;20660;-83
2023/04/22 05:25:22;;;;;;;2.10;1.90;;;;;;;;;;5014242;28;20321;-82
2023/04/22 05:27:49;;;;;;;2.22;2.03;;;;;;;;;;5014410;28;20290;-83
2023/04/22 05:30:17;;;;;;;2.20;2.00;;;;;;;;;;5014820;28;20675;-83
2023/04/22 05:32:44;;;;;;;1.90;1.80;;;;;;;;;;5014090;28;20306;-83
2023/04/22 05:35:12;;;;;;;2.38;2.00;;;;;;;;;;5013949;28;20305;-83
2023/04/22 05:37:39;;;;;;;1.63;1.52;;;;;;;;;;5014046;28;20773;-83
2023/04/22 05:40:09;;;;;;;2.15;1.95;;;;;;;;;;5014386;28;20650;-82
2023/04/22 05:42:37;;;;;;;2.03;1.85;;;;;;;;;;5013911;28;20226;-81
2023/04/22 05:45:06;;;;;;;2.65;2.05;;;;;;;;;;5016898;28;20215;-82
2023/04/22 05:47:34;;;;;;;1.67;1.58;;;;;;;;;;5022945;28;20231;-81
2023/04/22 05:50:01;;;;;;;1.88;1.77;;;;;;;;;;5017582;28;20219;-81
2023/04/22 05:52:29;;;;;;;2.25;2.10;;;;;;;;;;5034306;23;20235;-85
2023/04/22 05:54:56;;;;;;;2.90;2.65;;;;;;;;;;5013577;28;20225;-85
2023/04/22 05:57:24;;;;;;;2.95;2.65;;;;;;;;;;5013646;28;20282;-86
2023/04/22 05:59:53;;;;;;;2.88;2.67;;;;;;;;;;5014851;28;20298;-87
2023/04/22 06:02:20;;;;;;;2.28;2.08;;;;;;;;;;5014820;28;20277;-86
2023/04/22 06:04:48;;;;;;;2.50;2.28;;;;;;;;;;5015227;28;20239;-85
2023/04/22 06:07:15;;;;;;;2.60;2.40;;;;;;;;;;5013634;28;20294;-85
2023/04/22 06:09:42;;;;;;;2.83;2.63;;;;;;;;;;5013084;28;20285;-85
2023/04/22 06:12:11;;;;;;;2.60;2.40;;;;;;;;;;5012903;28;20262;-86
2023/04/22 06:14:39;;;;;;;2.47;2.28;;;;;;;;;;5013061;28;20290;-85
2023/04/22 06:17:08;;;;;;;2.20;2.03;;;;;;;;;;5013227;28;20637;-85
2023/04/22 06:19:35;;;;;;;2.80;2.58;;;;;;;;;;5013122;28;20518;-86
2023/04/22 06:22:03;;;;;;;4.70;2.60;;;;;;;;;;5012779;28;20666;-86
2023/04/22 06:24:31;;;;;;;2.90;2.70;;;;;;;;;;5013763;28;20289;-85
2023/04/22 06:26:58;;;;;;;2.97;2.60;;;;;;;;;;5014321;28;20222;-84
2023/04/22 06:29:25;;;;;;;3.08;2.75;;;;;;;;;;5013499;28;20222;-86
2023/04/22 06:31:53;;;;;;;2.80;2.60;;;;;;;;;;5013677;28;20302;-85
2023/04/22 06:34:22;;;;;;;2.20;2.10;;;;;;;;;;5012370;28;20678;-85
2023/04/22 06:36:50;;;;;;;4.22;2.95;;;;;;;;;;5022395;28;20252;-85
2023/04/22 06:39:17;;;;;;;3.45;3.03;;;;;;;;;;5024151;28;20632;-86
2023/04/22 06:41:45;;;;;;;4.85;2.97;;;;;;;;;;5032684;28;20674;-85
2023/04/22 06:44:12;;;;;;;4.13;2.38;;;;;;;;;;5032575;28;20218;-85
2023/04/22 06:46:39;;;;;;;2.97;2.78;;;;;;;;;;5028119;28;20674;-85
2023/04/22 06:49:07;;;;;;;4.55;3.80;;;;;;;;;;5012146;28;20289;-86
2023/04/22 06:51:36;;;;;;;2.72;2.50;;;;;;;;;;5012543;28;20781;-85
2023/04/22 06:54:04;;;;;;;2.63;2.42;;;;;;;;;;5012527;28;20281;-85
2023/04/22 06:56:31;;;;;;;2.92;2.67;;;;;;;;;;5012929;28;20202;-85
2023/04/22 06:58:59;;;;;;;2.60;2.40;;;;;;;;;;5012502;28;20222;-85
2023/04/22 07:01:26;;;;;;;2.80;2.08;;;;;;;;;;5012483;28;20222;-85
2023/04/22 07:03:54;;;;;;;2.50;2.30;;;;;;;;;;5012565;28;20262;-85
2023/04/22 07:06:21;;;;;;;2.10;1.98;;;;;;;;;;5012246;28;20285;-85
2023/04/22 07:08:50;;;;;;;2.05;1.88;;;;;;;;;;5012155;28;20298;-86
2023/04/22 07:11:17;;;;;;;2.33;2.20;;;;;;;;;;5016254;28;20237;-85
2023/04/22 07:13:45;;;;;;;2.28;2.03;;;;;;;;;;5016622;28;20285;-86
2023/04/22 07:16:12;;;;;;;2.92;2.22;;;;;;;;;;5016547;28;20218;-85
2023/04/22 07:18:40;;;;;;;2.70;2.50;;;;;;;;;;5018136;28;20267;-86
2023/04/22 07:21:07;;;;;;;2.60;2.20;;;;;;;;;;5020581;28;20733;-87
2023/04/22 07:23:35;;;;;;;2.38;2.17;;;;;;;;;;5020603;28;20722;-87
2023/04/22 07:26:04;;;;;;;3.03;2.83;;;;;;;;;;5018956;28;20290;-86
2023/04/22 07:28:31;;;;;;;3.67;2.10;;;;;;;;;;5019056;28;20298;-87
2023/04/22 07:30:59;;;;;;;7.90;2.63;;;;;;;;;;5020117;28;20282;-87
2023/04/22 07:33:26;;;;;;;3.17;2.45;;;;;;;;;;5019998;28;20237;-86
2023/04/22 07:35:54;;;;;;;2.58;2.38;;;;;;;;;;5019752;28;20290;-86
2023/04/22 07:38:21;;;;;;;2.60;2.40;;;;;;;;;;5020159;28;20229;-87
2023/04/22 07:40:49;;;;;;;5.55;2.67;;;;;;;;;;5019282;28;20746;-86
2023/04/22 07:43:18;;;;;;;3.28;2.22;;;;;;;;;;5018473;28;20313;-87
2023/04/22 07:45:46;;;;;;;4.43;2.40;;;;;;;;;;5018902;28;20229;-85
2023/04/22 07:48:13;;;;;;;3.17;2.55;;;;;;;;;;5019154;28;20206;-85
2023/04/22 07:50:41;;;;;;;3.00;2.80;;;;;;;;;;5019291;28;20229;-86
2023/04/22 07:53:09;;;;;;;2.83;2.17;;;;;;;;;;5018720;28;20217;-86
2023/04/22 07:55:37;;;;;;;2.38;2.08;;;;;;;;;;5018520;28;20253;-86
2023/04/22 07:58:05;;;;;;;4.00;2.70;;;;;;;;;;5018318;28;20227;-87
2023/04/22 08:00:35;;;;;;;2.38;2.22;;;;;;;;;;5018665;28;20206;-86
2023/04/22 08:03:03;;;;;;;2.83;2.47;;;;;;;;;;5017656;28;20617;-85
2023/04/22 08:05:30;;;;;;;5.85;2.45;;;;;;;;;;5017665;28;20235;-86
2023/04/22 08:07:58;;;;;;;3.03;2.53;;;;;;;;;;5016859;28;20199;-87
2023/04/22 08:10:26;;;;;;;2.80;2.60;;;;;;;;;;5017219;28;20587;-85
2023/04/22 08:12:53;;;;;;;2.67;2.47;;;;;;;;;;5016841;28;20238;-86
2023/04/22 08:15:20;;;;;;;2.92;2.72;;;;;;;;;;5016875;28;20203;-86
2023/04/22 08:17:50;;;;;;;3.05;2.65;;;;;;;;;;5016135;28;20298;-86
2023/04/22 08:20:17;;;;;;;2.55;2.35;;;;;;;;;;5015741;28;20198;-86
2023/04/22 08:22:45;;;;;;;3.13;2.78;;;;;;;;;;5015939;28;20230;-85
2023/04/22 08:25:13;;;;;;;4.05;2.72;;;;;;;;;;5016139;28;20223;-86
2023/04/22 08:27:41;;;;;;;2.90;2.70;;;;;;;;;;5016985;28;20241;-85
2023/04/22 08:30:09;;;;;;;3.42;2.35;;;;;;;;;;5016772;28;20694;-86
2023/04/22 08:32:37;;;;;;;2.50;2.30;;;;;;;;;;5015938;28;20223;-85
2023/04/22 08:35:06;;;;;;;2.35;1.90;;;;;;;;;;5016573;28;20245;-86
2023/04/22 08:37:35;;;;;;;2.60;2.40;;;;;;;;;;5016751;28;20203;-86
2023/04/22 08:40:03;;;;;;;2.95;2.45;;;;;;;;;;5016604;28;20199;-86
2023/04/22 08:42:31;;;;;;;2.80;2.58;;;;;;;;;;5015652;28;20220;-87
2023/04/22 08:44:59;;;;;;;2.88;2.58;;;;;;;;;;5015414;28;20314;-86
2023/04/22 08:47:27;;;;;;;2.72;2.20;;;;;;;;;;5015311;28;20297;-86
2023/04/22 08:49:56;;;;;;;3.58;3.28;;;;;;;;;;5014590;28;20290;-85
2023/04/22 08:52:25;;;;;;;2.50;2.35;;;;;;;;;;5015210;28;20257;-86
2023/04/22 08:54:52;;;;;;;3.15;2.85;;;;;;;;;;5015430;28;20267;-86
2023/04/22 08:57:20;;;;;;;2.38;2.20;;;;;;;;;;5015071;28;20289;-87
2023/04/22 08:59:49;;;;;;;2.58;2.38;;;;;;;;;;5016386;28;20202;-84
2023/04/22 09:02:20;;;;;;;2.42;2.22;;;;;;;;;;5015411;28;20237;-86
2023/04/22 09:04:50;;;;;;;2.83;2.53;;;;;;;;;;5014678;28;20230;-85
2023/04/22 09:07:25;;;;;;;2.03;1.92;;;;;;;;;;5014794;28;20429;-86
2023/04/22 09:09:53;;;;;;;2.13;2.03;;;;;;;;;;5014441;28;20614;-86
2023/04/22 09:12:21;;;;;;;3.35;2.67;;;;;;;;;;5014503;28;20785;-85
2023/04/22 09:14:48;;;;;;;2.30;2.10;;;;;;;;;;5013890;28;20730;-86
2023/04/22 09:17:17;;;;;;;3.08;2.75;;;;;;;;;;5014589;28;20209;-87
2023/04/22 09:19:44;;;;;;;2.40;2.20;;;;;;;;;;5013942;28;20202;-87
2023/04/22 09:22:14;;;;;;;2.78;2.58;;;;;;;;;;5014040;28;20227;-85
2023/04/22 09:24:49;;;;;;;2.40;2.20;;;;;;;;;;5014098;28;20223;-86
2023/04/22 09:27:17;;;;;;;2.28;2.08;;;;;;;;;;5014176;28;20221;-86
2023/04/22 09:29:49;;;;;;;3.47;2.53;;;;;;;;;;5014376;28;20213;-87
2023/04/22 09:32:17;;;;;;;2.67;2.22;;;;;;;;;;5013248;28;20313;-86
2023/04/22 09:34:52;;;;;;;2.72;2.53;;;;;;;;;;5013949;28;20270;-86
2023/04/22 09:37:22;;;;;;;2.58;2.38;;;;;;;;;;5014271;28;20202;-86
2023/04/22 09:39:52;;;;;;;3.60;2.63;;;;;;;;;;5013929;28;20261;-85
2023/04/22 09:42:20;;;;;;;2.80;2.50;;;;;;;;;;5018035;28;20223;-87
2023/04/22 09:44:51;;;;;;;2.60;2.40;;;;;;;;;;5018176;28;20233;-86
2023/04/22 09:47:19;;;;;;;2.63;2.42;;;;;;;;;;5017833;28;20859;-85
2023/04/22 09:49:48;;;;;;;2.03;1.92;;;;;;;;;;5017679;28;20207;-87
2023/04/22 09:52:25;;;;;;;2.63;2.38;;;;;;;;;;5015200;28;20281;-86
2023/04/22 09:54:54;;;;;;;2.30;2.10;;;;;;;;;;5019666;28;20221;-86
2023/04/22 09:57:22;;;;;;;3.22;2.65;;;;;;;;;;5019043;28;20293;-86
2023/04/22 09:59:51;;;;;;;2.40;2.17;;;;;;;;;;5017718;28;20298;-86
2023/04/22 10:02:19;;;;;;;2.80;2.45;;;;;;;;;;5018571;28;20223;-86
2023/04/22 10:04:47;;;;;;;3.55;2.60;;;;;;;;;;5016960;28;20276;-87
2023/04/22 10:07:16;;;;;;;3.58;3.28;;;;;;;;;;5015143;28;20318;-86
2023/04/22 10:09:43;;;;;;;3.83;2.92;;;;;;;;;;5019974;28;20205;-86
2023/04/22 10:12:12;;;;;;;3.20;2.90;;;;;;;;;;5032062;28;20651;-87
2023/04/22 10:14:40;;;;;;;2.80;2.30;;;;;;;;;;5037590;28;20682;-85
2023/04/22 10:17:08;;;;;;;7.75;2.95;;;;;;;;;;5030384;28;20306;-86
2023/04/22 10:19:36;;;;;;;2.90;2.70;;;;;;;;;;5020045;28;20221;-86
2023/04/22 10:22:06;;;;;;;2.72;2.53;;;;;;;;;;5018355;28;20223;-86
2023/04/22 10:24:37;;;;;;;2.92;2.72;;;;;;;;;;5016990;28;20218;-85
2023/04/22 10:27:07;;;;;;;2.92;2.72;;;;;;;;;;5018476;28;20207;-85
2023/04/22 10:29:41;;;;;;;2.50;2.30;;;;;;;;;;5015648;28;20306;-86
2023/04/22 10:32:25;;;;;;;3.33;2.67;;;;;;;;;;5020959;28;20218;-86
2023/04/22 10:35:12;;;;;;;3.17;2.88;;;;;;;;;;5010434;28;20210;-86
2023/04/22 10:37:44;;;;;;;3.53;2.78;;;;;;;;;;5016875;28;20207;-84
2023/04/22 10:40:15;;;;;;;2.50;2.30;;;;;;;;;;5017237;28;20262;-87
2023/04/22 10:42:46;;;;;;;2.33;2.13;;;;;;;;;;5016214;28;20246;-84
2023/04/22 10:45:16;;;;;;;3.10;2.83;;;;;;;;;;5016338;28;20313;-85
2023/04/22 10:47:44;;;;;;;2.47;2.30;;;;;;;;;;5015823;28;20245;-85
2023/04/22 10:50:15;;;;;;;2.50;2.30;;;;;;;;;;5015315;28;20206;-85
2023/04/22 10:52:46;;;;;;;1.85;1.75;;;;;;;;;;5015556;28;20317;-84
2023/04/22 10:55:13;;;;;;;2.60;2.10;;;;;;;;;;5015814;28;20294;-84
2023/04/22 10:57:42;;;;;;;2.85;2.60;;;;;;;;;;5015202;28;20207;-84
2023/04/22 11:00:42;;;;;;;2.67;2.10;;;;;;;;;;5015930;28;20561;-84
2023/04/22 11:03:19;;;;;;;2.58;2.05;;;;;;;;;;5015548;28;20241;-84
2023/04/22 11:05:46;;;;;;;2.47;2.28;;;;;;;;;;4996532;28;20310;-83
2023/04/22 11:08:22;;;;;;;1.98;1.88;;;;;;;;;;4995116;28;20295;-85
2023/04/22 11:10:52;;;;;;;3.15;1.98;;;;;;;;;;4994624;28;20261;-86
2023/04/22 11:13:21;;;;;;;2.05;1.67;;;;;;;;;;4994520;28;20231;-83
2023/04/22 11:15:52;;;;;;;1.75;1.65;;;;;;;;;;4993937;28;20218;-83
2023/04/22 11:18:23;;;;;;;1.63;1.52;;;;;;;;;;5012796;28;20663;-84
2023/04/22 11:20:52;;;;;;;1.80;1.70;;;;;;;;;;5014068;28;20210;-86
2023/04/22 11:23:24;;;;;;;1.90;1.80;;;;;;;;;;5014155;28;20257;-83
2023/04/22 11:26:02;;;;;;;2.70;2.50;;;;;;;;;;5013937;28;20233;-84
2023/04/22 11:28:30;;;;;;;1.80;1.70;;;;;;;;;;5013032;28;20304;-84
2023/04/22 11:31:08;;;;;;;3.60;1.80;;;;;;;;;;5012570;28;20285;-84
2023/04/22 11:33:37;;;;;;;2.00;1.90;;;;;;;;;;5012461;28;20201;-81
2023/04/22 11:36:05;;;;;;;1.80;1.60;;;;;;;;;;5012579;28;20225;-84
2023/04/22 11:38:33;;;;;;;1.85;1.75;;;;;;;;;;5012389;28;20207;-83
2023/04/22 11:41:00;;;;;;;2.10;1.83;;;;;;;;;;5012372;28;20297;-84
2023/04/22 11:43:28;;;;;;;1.60;1.50;;;;;;;;;;5012447;28;20656;-84
2023/04/22 11:45:56;;;;;;;1.75;1.65;;;;;;;;;;5011594;28;20314;-83
2023/04/22 11:48:25;;;;;;;1.58;1.48;;;;;;;;;;5012076;28;20210;-83
2023/04/22 11:51:09;;;;;;;1.70;1.60;;;;;;;;;;5011785;28;20667;-83
2023/04/22 11:53:38;;;;;;;3.25;1.70;;;;;;;;;;5012114;28;20206;-85
2023/04/22 11:56:05;;;;;;;1.13;1.13;;;;;;;;;;5013729;28;20199;-84
2023/04/22 11:58:33;;;;;;;1.70;1.55;;;;;;;;;;5037514;23;20226;-84
2023/04/22 12:01:00;;;;;;;1.40;1.30;;;;;;;;;;5016263;28;20629;-84
2023/04/22 12:03:30;;;;;;;2.67;1.80;;;;;;;;;;5016155;28;20210;-85
2023/04/22 12:06:01;;;;;;;1.30;1.27;;;;;;;;;;5015866;28;20227;-84
2023/04/22 12:08:32;;;;;;;1.45;1.38;;;;;;;;;;5016188;28;20209;-84
2023/04/22 12:11:03;;;;;;;1.95;1.65;;;;;;;;;;5015944;28;20577;-85
2023/04/22 12:13:40;;;;;;;1.73;1.40;;;;;;;;;;5016061;28;20234;-85
2023/04/22 12:16:13;;;;;;;1.45;1.38;;;;;;;;;;5016231;28;20243;-84
2023/04/22 12:18:51;;;;;;;1.80;1.30;;;;;;;;;;5015771;28;20278;-85
2023/04/22 12:21:22;;;;;;;1.40;1.30;;;;;;;;;;5015957;28;20558;-85
2023/04/22 12:23:51;;;;;;;1.10;1.10;;;;;;;;;;5015781;28;20218;-85
2023/04/22 12:26:20;;;;;;;1.88;1.30;;;;;;;;;;5015249;28;20638;-85
2023/04/22 12:28:48;;;;;;;1.17;1.17;;;;;;;;;;5015252;28;20262;-85
2023/04/22 12:31:16;;;;;;;1.77;1.60;;;;;;;;;;5015515;28;20233;-84
2023/04/22 12:33:46;;;;;;;1.42;1.33;;;;;;;;;;5015486;28;20660;-85
2023/04/22 12:36:14;;;;;;;1.67;1.58;;;;;;;;;;5014977;28;20254;-85
2023/04/22 12:38:42;;;;;;;1.35;1.25;;;;;;;;;;5015195;28;20261;-84
2023/04/22 12:41:09;;;;;;;2.60;1.58;;;;;;;;;;5015002;28;20555;-85
2023/04/22 12:43:38;;;;;;;4.00;2.20;;;;;;;;;;5015267;28;20688;-85
2023/04/22 12:46:07;;;;;;;3.17;2.40;;;;;;;;;;5015356;28;20726;-85
2023/04/22 12:48:36;;;;;;;2.50;1.50;;;;;;;;;;5015156;28;20674;-85
2023/04/22 12:51:05;;;;;;;1.52;1.42;;;;;;;;;;5015347;28;20735;-85
2023/04/22 12:53:32;;;;;;;1.20;1.10;;;;;;;;;;5015251;28;20228;-84
2023/04/22 12:56:00;;;;;;;1.38;1.30;;;;;;;;;;5014815;28;20709;-85
2023/04/22 12:58:27;;;;;;;1.58;1.48;;;;;;;;;;5014983;28;20234;-84
2023/04/22 13:00:55;;;;;;;1.98;1.42;;;;;;;;;;5015516;28;20202;-85
2023/04/22 13:03:22;;;;;;;1.55;1.45;;;;;;;;;;5014757;28;20298;-85
2023/04/22 13:05:50;;;;;;;1.80;1.70;;;;;;;;;;5015065;28;20199;-85
2023/04/22 13:08:19;;;;;;;1.10;1.10;;;;;;;;;;5013369;28;20579;-84
2023/04/22 13:10:47;;;;;;;1.35;1.30;;;;;;;;;;5014687;28;20195;-84
2023/04/22 13:13:15;;;;;;;1.00;1.00;;;;;;;;;;5014859;28;20286;-84
2023/04/22 13:15:43;;;;;;;1.40;1.30;;;;;;;;;;5014893;28;20219;-86
2023/04/22 13:18:10;;;;;;;1.42;1.30;;;;;;;;;;5013943;28;20238;-86
2023/04/22 13:20:38;;;;;;;1.08;1.08;;;;;;;;;;5014767;28;20281;-84
2023/04/22 13:23:06;;;;;;;1.02;1.02;;;;;;;;;;5014858;28;20203;-84
2023/04/22 13:25:35;;;;;;;1.33;1.33;;;;;;;;;;5014733;28;20301;-86
2023/04/22 13:28:03;;;;;;;1.30;1.20;;;;;;;;;;5014365;28;20314;-85
2023/04/22 13:30:31;;;;;;;2.25;1.27;;;;;;;;;;5012991;28;20695;-86
2023/04/22 13:32:58;;;;;;;1.23;1.23;;;;;;;;;;5014348;28;20262;-85
2023/04/22 13:35:26;;;;;;;1.63;1.52;;;;;;;;;;5014344;28;20302;-84
2023/04/22 13:37:53;;;;;;;1.80;1.20;;;;;;;;;;5014492;28;20206;-85
2023/04/22 13:40:21;;;;;;;1.20;1.20;;;;;;;;;;5014147;28;20241;-86
2023/04/22 13:42:50;;;;;;;1.25;1.20;;;;;;;;;;5014177;28;20548;-84
2023/04/22 13:45:17;;;;;;;1.50;1.40;;;;;;;;;;5013905;28;20250;-85
2023/04/22 13:47:45;;;;;;;1.77;1.67;;;;;;;;;;5013609;28;20258;-85
2023/04/22 13:50:12;;;;;;;2.20;1.40;;;;;;;;;;5014159;28;20206;-84
2023/04/22 13:52:41;;;;;;;1.48;1.20;;;;;;;;;;5014077;28;20565;-85
2023/04/22 13:55:12;;;;;;;1.40;1.30;;;;;;;;;;5014568;28;20596;-84
2023/04/22 13:57:40;;;;;;;1.92;1.83;;;;;;;;;;5014861;28;20322;-84
2023/04/22 14:00:10;;;;;;;1.50;1.40;;;;;;;;;;5013985;28;20636;-84
2023/04/22 14:02:38;;;;;;;2.05;1.30;;;;;;;;;;5013459;28;20234;-85
2023/04/22 14:05:06;;;;;;;1.50;1.40;;;;;;;;;;5013587;28;20301;-84
2023/04/22 14:07:34;;;;;;;1.70;1.60;;;;;;;;;;5013722;28;20313;-85
2023/04/22 14:10:02;;;;;;;1.85;1.65;;;;;;;;;;5014076;28;20207;-85
2023/04/22 14:12:30;;;;;;;1.55;1.45;;;;;;;;;;5013874;28;20294;-85
2023/04/22 14:14:57;;;;;;;1.25;1.10;;;;;;;;;;5013280;28;20281;-85
2023/04/22 14:17:26;;;;;;;2.35;1.40;;;;;;;;;;5013760;28;20203;-85
2023/04/22 14:19:54;;;;;;;1.65;1.55;;;;;;;;;;5013159;28;20246;-86
2023/04/22 14:22:21;;;;;;;1.35;1.25;;;;;;;;;;5013558;28;20218;-85
2023/04/22 14:24:49;;;;;;;1.60;1.40;;;;;;;;;;5013644;28;20254;-86
2023/04/22 14:27:16;;;;;;;1.90;1.17;;;;;;;;;;5013621;28;20230;-86
2023/04/22 14:29:44;;;;;;;1.58;1.48;;;;;;;;;;5013018;28;20574;-86
2023/04/22 14:32:12;;;;;;;1.50;1.40;;;;;;;;;;5013279;28;20207;-85
2023/04/22 14:34:41;;;;;;;1.50;1.40;;;;;;;;;;5013383;28;20314;-86
2023/04/22 14:37:08;;;;;;;1.23;1.20;;;;;;;;;;5013455;28;20287;-86
2023/04/22 14:39:36;;;;;;;1.67;1.45;;;;;;;;;;5013255;28;20293;-85
2023/04/22 14:42:04;;;;;;;1.65;1.55;;;;;;;;;;5013300;28;20226;-86
2023/04/22 14:44:31;;;;;;;1.50;1.40;;;;;;;;;;5013219;28;20214;-87
2023/04/22 14:46:59;;;;;;;2.45;1.83;;;;;;;;;;5013159;28;20326;-86
2023/04/22 14:49:26;;;;;;;1.63;1.52;;;;;;;;;;5013429;28;20272;-86
2023/04/22 14:51:55;;;;;;;1.60;1.50;;;;;;;;;;5013078;28;20241;-85
2023/04/22 14:54:23;;;;;;;1.60;1.50;;;;;;;;;;5013246;28;20223;-85